Ora Direzione Vento Velocita' Vento Media Vento Raffica Max. Temperatura Wind Chill Pioggia Pressione
02:40:40.045 °(NE)3.9 Kts3.9 Kts6.0 Kts4.9 °C3.3 °C0.0 mm1020.4 Hpa
02:20:25.045 °(NE)2.7 Kts1.9 Kts6.0 Kts5.1 °C4.8 °C0.0 mm1020.8 Hpa
02:00:15.00 °(N)3.3 Kts2.7 Kts6.0 Kts5.4 °C4.5 °C0.0 mm1021.1 Hpa
01:40:05.022 °(NNE)3.3 Kts2.7 Kts6.0 Kts5.8 °C5.0 °C0.0 mm1021.1 Hpa
01:19:57.00 °(N)2.7 Kts1.9 Kts6.0 Kts6.0 °C5.8 °C0.0 mm1021.3 Hpa
00:59:38.00 °(N)3.9 Kts3.3 Kts6.0 Kts6.1 °C5.0 °C0.0 mm1021.1 Hpa
00:40:36.0338 °(NNW)1.9 Kts1.4 Kts6.0 Kts6.4 °C6.4 °C0.0 mm1021.0 Hpa
00:20:26.045 °(NE)4.7 Kts3.9 Kts6.0 Kts6.6 °C5.2 °C0.0 mm1020.8 Hpa
00:00:19.00 °(N)5.3 Kts4.7 Kts19.3 Kts6.3 °C4.5 °C0.0 mm1021.0 Hpa
23:40:11.00 °(N)3.3 Kts2.7 Kts19.3 Kts6.4 °C5.7 °C0.0 mm1021.0 Hpa
23:20:02.00 °(N)3.9 Kts3.3 Kts19.3 Kts6.4 °C5.3 °C0.0 mm1021.1 Hpa
22:59:56.045 °(NE)3.9 Kts3.3 Kts19.3 Kts6.8 °C5.8 °C0.0 mm1021.1 Hpa
22:39:50.0180 °(S)0.6 Kts0.0 Kts19.3 Kts6.9 °C6.9 °C0.0 mm1021.2 Hpa
22:19:47.00 °(N)3.3 Kts2.7 Kts19.3 Kts7.3 °C6.7 °C0.0 mm1021.2 Hpa
21:59:36.00 °(N)2.7 Kts1.9 Kts19.3 Kts7.8 °C7.8 °C0.0 mm1021.2 Hpa
21:40:32.00 °(N)1.9 Kts1.4 Kts19.3 Kts7.9 °C7.9 °C0.0 mm1021.1 Hpa
21:20:30.045 °(NE)3.3 Kts2.7 Kts19.3 Kts8.2 °C7.7 °C0.0 mm1021.0 Hpa
21:00:19.0315 °(NW)1.9 Kts1.4 Kts19.3 Kts8.6 °C8.6 °C0.0 mm1021.1 Hpa
20:40:14.00 °(N)2.7 Kts1.4 Kts19.3 Kts9.3 °C9.3 °C0.0 mm1021.0 Hpa
20:20:06.0315 °(NW)4.7 Kts3.9 Kts19.3 Kts9.3 °C8.4 °C0.0 mm1021.1 Hpa